Aviation Digital Data Service (ADDS)

Output produced by TAFs form (0536 UTC 20 September 2017)
found at http://www.aviationweather.gov/adds/tafs/
 
KIWA 192344Z 2000/2024 25010KT P6SM SKC 
     FM200600 11008KT P6SM SKC 
     FM201900 21010KT P6SM SKC 
     FM202200 25012KT P6SM SKC AMD LTD TO CLD VIS AND WIND 2003/2013